Time;durP1;ratioP1;P1;durP2;ratioP2;P2;SDS_P1;SDS_P2;PMS_P1;PMS_P2;Temp;Humidity;BMP_temperature;BMP_pressure;BME280_temperature;BME280_humidity;BME280_pressure;Samples;Min_cycle;Max_cycle;Signal;HPM_P1;HPM_P2
2023/07/25 00:01:55;;;;;;;4.53;1.90;;;;;;;;;;5041523;28;20307;-68
2023/07/25 00:04:24;;;;;;;3.07;1.50;;;;;;;;;;5055351;28;20218;-68
2023/07/25 00:06:52;;;;;;;2.83;1.40;;;;;;;;;;5061525;28;20211;-68
2023/07/25 00:09:20;;;;;;;1.67;1.30;;;;;;;;;;5061517;28;20215;-69
2023/07/25 00:11:47;;;;;;;2.30;1.50;;;;;;;;;;5061491;28;20296;-70
2023/07/25 00:14:18;;;;;;;1.93;1.40;;;;;;;;;;5061149;28;20209;-68
2023/07/25 00:16:46;;;;;;;2.20;1.83;;;;;;;;;;5061234;28;20575;-68
2023/07/25 00:19:13;;;;;;;2.30;1.87;;;;;;;;;;5061320;28;20211;-68
2023/07/25 00:21:42;;;;;;;2.00;1.40;;;;;;;;;;5060891;28;20232;-68
2023/07/25 00:24:10;;;;;;;3.03;1.70;;;;;;;;;;5061170;28;20215;-69
2023/07/25 00:26:38;;;;;;;2.37;1.60;;;;;;;;;;5061031;28;20637;-68
2023/07/25 00:29:06;;;;;;;4.37;2.40;;;;;;;;;;5060892;28;20235;-68
2023/07/25 00:31:34;;;;;;;2.43;1.70;;;;;;;;;;5060995;28;20229;-68
2023/07/25 00:34:03;;;;;;;3.63;1.53;;;;;;;;;;5040976;28;20777;-69
2023/07/25 00:36:31;;;;;;;3.10;1.73;;;;;;;;;;5040815;28;20281;-68
2023/07/25 00:39:00;;;;;;;2.10;1.57;;;;;;;;;;5041023;28;20208;-68
2023/07/25 00:41:28;;;;;;;2.10;1.70;;;;;;;;;;5043023;28;20312;-69
2023/07/25 00:43:56;;;;;;;2.00;1.60;;;;;;;;;;5058068;28;20664;-68
2023/07/25 00:46:24;;;;;;;2.53;1.80;;;;;;;;;;5060604;28;20232;-69
2023/07/25 00:48:52;;;;;;;3.60;1.50;;;;;;;;;;5060885;28;20223;-69
2023/07/25 00:51:20;;;;;;;4.53;1.83;;;;;;;;;;5060554;28;20311;-68
2023/07/25 00:53:48;;;;;;;2.03;1.50;;;;;;;;;;5060867;28;20213;-69
2023/07/25 00:56:17;;;;;;;3.30;1.60;;;;;;;;;;5060587;28;20227;-69
2023/07/25 00:58:47;;;;;;;2.53;1.53;;;;;;;;;;5060396;28;20670;-69
2023/07/25 01:01:17;;;;;;;2.53;1.70;;;;;;;;;;5042385;28;20231;-69
2023/07/25 01:03:48;;;;;;;3.03;1.40;;;;;;;;;;5040743;28;20258;-69
2023/07/25 01:06:17;;;;;;;3.30;1.57;;;;;;;;;;5040396;28;20231;-69
2023/07/25 01:08:48;;;;;;;2.17;1.63;;;;;;;;;;5040471;28;20742;-68
2023/07/25 01:11:17;;;;;;;3.60;1.50;;;;;;;;;;5046679;28;20234;-69
2023/07/25 01:13:46;;;;;;;3.50;1.50;;;;;;;;;;5060018;28;20272;-69
2023/07/25 01:16:15;;;;;;;4.00;1.80;;;;;;;;;;5059984;28;20250;-69
2023/07/25 01:18:43;;;;;;;3.87;1.87;;;;;;;;;;5060308;28;20238;-70
2023/07/25 01:21:12;;;;;;;1.57;1.40;;;;;;;;;;5059800;28;20661;-70
2023/07/25 01:23:40;;;;;;;2.77;1.87;;;;;;;;;;5060020;28;20290;-69
2023/07/25 01:26:11;;;;;;;2.07;1.87;;;;;;;;;;5060078;28;20212;-69
2023/07/25 01:28:39;;;;;;;6.20;2.87;;;;;;;;;;5059871;28;20214;-68
2023/07/25 01:31:07;;;;;;;2.90;1.97;;;;;;;;;;5060114;28;20223;-70
2023/07/25 01:33:36;;;;;;;3.27;2.40;;;;;;;;;;5059624;28;20326;-70
2023/07/25 01:36:04;;;;;;;1.73;1.63;;;;;;;;;;5059675;28;20712;-68
2023/07/25 01:38:32;;;;;;;3.40;1.40;;;;;;;;;;5059863;28;20286;-68
2023/07/25 01:41:00;;;;;;;2.30;1.63;;;;;;;;;;5049088;28;20223;-68
2023/07/25 01:43:29;;;;;;;3.60;1.73;;;;;;;;;;5052953;28;20205;-68
2023/07/25 01:45:56;;;;;;;2.93;1.53;;;;;;;;;;5039816;28;20209;-70
2023/07/25 01:48:24;;;;;;;1.93;1.53;;;;;;;;;;5039729;28;20233;-70
2023/07/25 01:50:52;;;;;;;1.73;1.60;;;;;;;;;;5039534;28;20793;-70
2023/07/25 01:53:20;;;;;;;2.40;1.40;;;;;;;;;;5039625;28;20287;-69
2023/07/25 01:55:47;;;;;;;3.07;1.50;;;;;;;;;;5039652;28;20293;-70
2023/07/25 01:58:15;;;;;;;3.90;1.67;;;;;;;;;;5039472;28;20243;-70
2023/07/25 02:00:44;;;;;;;3.27;1.67;;;;;;;;;;5043440;28;20773;-70
2023/07/25 02:03:15;;;;;;;3.77;1.60;;;;;;;;;;5039452;28;20214;-70
2023/07/25 02:05:43;;;;;;;3.60;2.20;;;;;;;;;;5039132;28;20258;-70
2023/07/25 02:08:13;;;;;;;1.83;1.60;;;;;;;;;;5039050;28;20293;-69
2023/07/25 02:10:41;;;;;;;2.33;1.77;;;;;;;;;;5039444;28;20230;-70
2023/07/25 02:13:09;;;;;;;3.03;1.80;;;;;;;;;;5039320;28;20217;-70
2023/07/25 02:15:37;;;;;;;2.73;1.80;;;;;;;;;;5038977;28;20218;-69
2023/07/25 02:18:06;;;;;;;3.27;1.97;;;;;;;;;;5039153;28;20234;-70
2023/07/25 02:20:33;;;;;;;3.47;1.80;;;;;;;;;;5039047;28;20678;-70
2023/07/25 02:23:02;;;;;;;2.53;1.87;;;;;;;;;;5038407;28;20218;-70
2023/07/25 02:25:30;;;;;;;2.93;1.90;;;;;;;;;;5038990;28;20300;-70
2023/07/25 02:27:58;;;;;;;5.07;1.60;;;;;;;;;;5039019;28;20269;-69
2023/07/25 02:30:25;;;;;;;4.23;1.90;;;;;;;;;;5040058;28;20237;-70
2023/07/25 02:32:53;;;;;;;3.57;2.33;;;;;;;;;;5058529;28;20660;-71
2023/07/25 02:35:22;;;;;;;2.60;2.07;;;;;;;;;;5058948;28;20207;-71
2023/07/25 02:37:50;;;;;;;4.23;2.10;;;;;;;;;;5058607;28;20233;-71
2023/07/25 02:40:18;;;;;;;2.70;1.80;;;;;;;;;;5052969;28;20226;-71
2023/07/25 02:42:46;;;;;;;2.77;2.13;;;;;;;;;;5050335;28;20287;-71
2023/07/25 02:45:13;;;;;;;4.13;1.87;;;;;;;;;;5051659;28;20683;-70
2023/07/25 02:47:41;;;;;;;2.83;1.73;;;;;;;;;;5038444;28;20573;-71
2023/07/25 02:50:09;;;;;;;3.40;1.67;;;;;;;;;;5038425;28;20239;-71
2023/07/25 02:52:38;;;;;;;5.07;2.17;;;;;;;;;;5038669;28;20214;-71
2023/07/25 02:55:06;;;;;;;1.90;1.70;;;;;;;;;;5038403;28;20216;-70
2023/07/25 02:57:34;;;;;;;4.33;1.80;;;;;;;;;;5038145;28;20225;-69
2023/07/25 03:00:02;;;;;;;2.37;1.70;;;;;;;;;;5047743;28;20236;-71
2023/07/25 03:02:30;;;;;;;3.23;1.57;;;;;;;;;;5038456;28;20215;-71
2023/07/25 03:04:58;;;;;;;2.57;1.73;;;;;;;;;;5038038;28;20551;-71
2023/07/25 03:07:25;;;;;;;3.60;1.87;;;;;;;;;;5038141;28;20210;-70
2023/07/25 03:09:55;;;;;;;3.10;2.30;;;;;;;;;;5038162;28;20227;-69
2023/07/25 03:12:24;;;;;;;1.97;1.77;;;;;;;;;;5037996;28;20207;-70
2023/07/25 03:14:52;;;;;;;2.23;1.90;;;;;;;;;;5037846;28;20235;-69
2023/07/25 03:17:20;;;;;;;3.03;1.87;;;;;;;;;;5038000;28;20330;-69
2023/07/25 03:19:47;;;;;;;3.53;1.80;;;;;;;;;;5037977;28;20208;-69
2023/07/25 03:22:17;;;;;;;1.60;1.50;;;;;;;;;;5038056;28;20214;-69
2023/07/25 03:24:45;;;;;;;2.57;1.80;;;;;;;;;;5037766;28;20301;-69
2023/07/25 03:27:14;;;;;;;1.87;1.50;;;;;;;;;;5038101;28;20240;-69
2023/07/25 03:29:42;;;;;;;3.83;1.83;;;;;;;;;;5037644;28;20206;-69
2023/07/25 03:32:10;;;;;;;2.00;1.60;;;;;;;;;;5053649;28;20293;-69
2023/07/25 03:34:38;;;;;;;3.43;1.80;;;;;;;;;;5057288;28;20240;-68
2023/07/25 03:37:05;;;;;;;3.37;2.10;;;;;;;;;;5057515;28;20221;-69
2023/07/25 03:39:33;;;;;;;7.50;2.13;;;;;;;;;;5057226;28;20561;-69
2023/07/25 03:42:02;;;;;;;3.27;1.50;;;;;;;;;;5049280;28;20232;-69
2023/07/25 03:44:31;;;;;;;3.37;1.80;;;;;;;;;;5044997;28;20274;-69
2023/07/25 03:47:02;;;;;;;2.67;1.70;;;;;;;;;;5061967;28;20280;-70
2023/07/25 03:49:30;;;;;;;1.90;1.70;;;;;;;;;;5063532;28;20195;-69
2023/07/25 03:51:58;;;;;;;3.50;1.93;;;;;;;;;;5063092;28;20198;-70
2023/07/25 03:54:26;;;;;;;2.90;1.90;;;;;;;;;;5062867;28;20547;-70
2023/07/25 03:56:54;;;;;;;1.73;1.57;;;;;;;;;;5067705;28;20210;-70
2023/07/25 03:59:21;;;;;;;3.83;1.77;;;;;;;;;;5066587;28;20226;-71
2023/07/25 04:01:51;;;;;;;2.40;1.87;;;;;;;;;;5067002;28;20308;-70
2023/07/25 04:04:19;;;;;;;3.13;1.80;;;;;;;;;;5064137;28;20205;-69
2023/07/25 04:06:47;;;;;;;2.63;1.50;;;;;;;;;;5066504;28;20706;-69
2023/07/25 04:09:14;;;;;;;4.60;1.90;;;;;;;;;;5061595;28;20193;-69
2023/07/25 04:11:42;;;;;;;4.43;1.93;;;;;;;;;;5063975;28;20242;-69
2023/07/25 04:14:10;;;;;;;8.93;2.90;;;;;;;;;;5063012;28;20669;-69
2023/07/25 04:16:38;;;;;;;2.70;1.77;;;;;;;;;;5064029;28;20606;-69
2023/07/25 04:19:07;;;;;;;2.47;1.73;;;;;;;;;;5065825;28;20628;-70
2023/07/25 04:21:35;;;;;;;5.13;2.60;;;;;;;;;;5065012;28;20248;-69
2023/07/25 04:24:05;;;;;;;4.40;2.03;;;;;;;;;;5060442;28;20203;-70
2023/07/25 04:26:33;;;;;;;2.87;2.00;;;;;;;;;;5065965;28;20318;-70
2023/07/25 04:29:01;;;;;;;5.63;2.27;;;;;;;;;;5064067;28;20661;-70
2023/07/25 04:31:29;;;;;;;2.57;1.73;;;;;;;;;;5060368;28;20225;-70
2023/07/25 04:33:57;;;;;;;4.77;2.20;;;;;;;;;;5038115;28;20247;-70
2023/07/25 04:36:28;;;;;;;3.00;1.73;;;;;;;;;;5037235;28;20213;-72
2023/07/25 04:38:57;;;;;;;4.03;2.10;;;;;;;;;;5037211;28;20231;-69
2023/07/25 04:41:24;;;;;;;3.53;2.53;;;;;;;;;;5039784;28;20288;-70
2023/07/25 04:43:54;;;;;;;3.30;2.57;;;;;;;;;;5049205;28;20221;-70
2023/07/25 04:46:22;;;;;;;2.00;1.80;;;;;;;;;;5046763;28;20206;-70
2023/07/25 04:48:50;;;;;;;1.83;1.73;;;;;;;;;;5043822;28;20240;-70
2023/07/25 04:51:18;;;;;;;2.00;1.80;;;;;;;;;;5040621;28;20237;-70
2023/07/25 04:53:47;;;;;;;3.03;1.90;;;;;;;;;;5040648;28;20210;-70
2023/07/25 04:56:14;;;;;;;2.93;1.60;;;;;;;;;;5040805;28;20217;-70
2023/07/25 04:58:42;;;;;;;4.97;1.63;;;;;;;;;;5040656;28;20230;-69
2023/07/25 05:01:12;;;;;;;1.80;1.70;;;;;;;;;;5049492;28;20231;-69
2023/07/25 05:03:40;;;;;;;4.03;2.30;;;;;;;;;;5040516;28;20659;-69
2023/07/25 05:06:08;;;;;;;3.07;2.00;;;;;;;;;;5039909;28;20273;-70
2023/07/25 05:08:35;;;;;;;2.50;1.90;;;;;;;;;;5067353;28;20197;-70
2023/07/25 05:11:05;;;;;;;6.13;1.90;;;;;;;;;;5062257;28;20229;-69
2023/07/25 05:13:32;;;;;;;3.93;2.00;;;;;;;;;;5040023;28;20662;-69
2023/07/25 05:16:00;;;;;;;1.97;1.80;;;;;;;;;;5040214;28;20585;-70
2023/07/25 05:18:28;;;;;;;5.93;2.10;;;;;;;;;;5047118;28;20675;-68
2023/07/25 05:20:56;;;;;;;2.93;1.80;;;;;;;;;;5059937;28;20319;-68
2023/07/25 05:23:24;;;;;;;2.97;1.83;;;;;;;;;;5059901;28;20230;-68
2023/07/25 05:25:51;;;;;;;1.70;1.60;;;;;;;;;;5060204;28;20217;-68
2023/07/25 05:28:20;;;;;;;3.80;1.80;;;;;;;;;;5059923;28;20211;-68
2023/07/25 05:30:48;;;;;;;2.67;1.60;;;;;;;;;;5059634;28;20325;-68
2023/07/25 05:33:16;;;;;;;3.70;1.50;;;;;;;;;;5059651;28;20246;-69
2023/07/25 05:35:44;;;;;;;3.57;1.90;;;;;;;;;;5063137;28;20538;-69
2023/07/25 05:38:11;;;;;;;2.53;1.80;;;;;;;;;;5068739;28;20207;-69
2023/07/25 05:40:39;;;;;;;3.00;1.70;;;;;;;;;;5063643;28;20226;-70
2023/07/25 05:43:07;;;;;;;2.17;1.73;;;;;;;;;;5066451;28;20712;-69
2023/07/25 05:45:36;;;;;;;1.87;1.40;;;;;;;;;;5068437;28;20644;-68
2023/07/25 05:48:04;;;;;;;3.57;1.90;;;;;;;;;;5069402;28;20209;-68
2023/07/25 05:50:32;;;;;;;2.87;1.90;;;;;;;;;;5052393;28;20280;-66
2023/07/25 05:52:59;;;;;;;6.13;1.80;;;;;;;;;;5061448;28;20560;-68
2023/07/25 05:55:27;;;;;;;3.97;1.93;;;;;;;;;;5069897;28;20617;-72
2023/07/25 05:57:55;;;;;;;3.03;1.53;;;;;;;;;;5067232;28;20241;-68
2023/07/25 06:00:22;;;;;;;4.87;1.93;;;;;;;;;;5070032;28;20316;-68
2023/07/25 06:02:52;;;;;;;4.67;1.63;;;;;;;;;;5062701;28;20206;-67
2023/07/25 06:05:20;;;;;;;3.23;1.90;;;;;;;;;;5062987;28;20213;-67
2023/07/25 06:07:48;;;;;;;1.93;1.60;;;;;;;;;;5044955;28;20226;-67
2023/07/25 06:10:16;;;;;;;4.10;1.90;;;;;;;;;;5069369;28;20219;-66
2023/07/25 06:12:44;;;;;;;2.90;1.83;;;;;;;;;;5062521;28;20203;-67
2023/07/25 06:15:12;;;;;;;2.07;1.83;;;;;;;;;;5051869;28;20721;-67
2023/07/25 06:17:39;;;;;;;3.63;1.70;;;;;;;;;;5038852;28;20211;-68
2023/07/25 06:20:10;;;;;;;4.23;1.60;;;;;;;;;;5038851;28;20744;-68
2023/07/25 06:22:38;;;;;;;4.20;1.70;;;;;;;;;;5038722;28;20218;-68
2023/07/25 06:25:07;;;;;;;4.97;1.90;;;;;;;;;;5038746;28;20579;-68
2023/07/25 06:27:35;;;;;;;3.40;2.40;;;;;;;;;;5045749;28;20207;-64
2023/07/25 06:30:03;;;;;;;3.60;1.73;;;;;;;;;;5058502;28;20229;-63
2023/07/25 06:32:31;;;;;;;3.57;1.70;;;;;;;;;;5058277;28;20246;-64
2023/07/25 06:34:59;;;;;;;2.23;1.67;;;;;;;;;;5018899;28;20584;-65
2023/07/25 06:37:28;;;;;;;3.10;1.60;;;;;;;;;;5018719;28;20658;-65
2023/07/25 06:39:55;;;;;;;11.60;3.07;;;;;;;;;;5017246;28;20646;-65
2023/07/25 06:42:23;;;;;;;16.80;3.33;;;;;;;;;;5007453;28;20203;-65
2023/07/25 06:44:51;;;;;;;1.87;1.60;;;;;;;;;;5003428;28;20211;-64
2023/07/25 06:47:19;;;;;;;2.13;1.50;;;;;;;;;;5002221;28;20269;-64
2023/07/25 06:49:46;;;;;;;2.23;1.50;;;;;;;;;;5007959;28;20657;-65
2023/07/25 06:52:14;;;;;;;1.77;1.60;;;;;;;;;;4999009;28;20220;-63
2023/07/25 06:54:44;;;;;;;1.83;1.40;;;;;;;;;;4999227;28;20207;-63
2023/07/25 06:57:14;;;;;;;2.50;1.60;;;;;;;;;;4998757;28;20210;-62
2023/07/25 06:59:42;;;;;;;3.77;1.43;;;;;;;;;;5006905;28;20232;-61
2023/07/25 07:02:09;;;;;;;4.00;1.33;;;;;;;;;;4999945;28;20270;-61
2023/07/25 07:04:37;;;;;;;2.40;1.30;;;;;;;;;;4998997;28;20214;-62
2023/07/25 07:07:06;;;;;;;1.90;1.50;;;;;;;;;;4998471;28;20221;-62
2023/07/25 07:09:34;;;;;;;1.73;1.27;;;;;;;;;;4998452;28;20237;-62
2023/07/25 07:12:03;;;;;;;4.37;1.80;;;;;;;;;;4998635;28;20297;-62
2023/07/25 07:14:31;;;;;;;5.13;1.77;;;;;;;;;;4998516;28;20215;-62
2023/07/25 07:16:59;;;;;;;3.77;1.70;;;;;;;;;;5010452;28;20307;-62
2023/07/25 07:19:27;;;;;;;2.53;2.07;;;;;;;;;;5007836;28;20694;-62
2023/07/25 07:21:54;;;;;;;3.33;1.10;;;;;;;;;;5011204;28;20210;-62
2023/07/25 07:24:22;;;;;;;1.57;1.23;;;;;;;;;;5018247;28;20297;-62
2023/07/25 07:26:50;;;;;;;2.37;1.57;;;;;;;;;;5018057;28;20644;-62
2023/07/25 07:29:19;;;;;;;3.60;1.47;;;;;;;;;;5017820;28;20278;-62
2023/07/25 07:31:47;;;;;;;5.77;1.60;;;;;;;;;;5012918;28;20273;-62
2023/07/25 07:34:16;;;;;;;2.23;1.70;;;;;;;;;;5033492;28;20410;-62
2023/07/25 07:36:44;;;;;;;4.90;2.03;;;;;;;;;;5038434;28;20245;-62
2023/07/25 07:39:12;;;;;;;1.53;1.33;;;;;;;;;;5037418;28;20574;-63
2023/07/25 07:41:40;;;;;;;3.20;1.50;;;;;;;;;;5051463;28;20228;-62
2023/07/25 07:44:08;;;;;;;3.07;1.50;;;;;;;;;;5057091;28;20572;-62
2023/07/25 07:46:37;;;;;;;2.17;1.73;;;;;;;;;;5037453;28;20216;-63
2023/07/25 07:49:04;;;;;;;2.20;1.50;;;;;;;;;;5037938;28;20295;-63
2023/07/25 07:51:32;;;;;;;2.33;1.37;;;;;;;;;;5037333;28;20220;-62
2023/07/25 07:54:01;;;;;;;4.10;1.37;;;;;;;;;;5037444;28;20212;-62
2023/07/25 07:56:28;;;;;;;2.47;1.50;;;;;;;;;;5037558;28;20223;-62
2023/07/25 07:58:56;;;;;;;2.77;1.30;;;;;;;;;;5037945;28;20214;-63
2023/07/25 08:01:24;;;;;;;1.30;1.20;;;;;;;;;;5037252;28;20236;-63
2023/07/25 08:03:54;;;;;;;2.13;1.30;;;;;;;;;;5037190;28;20580;-63
2023/07/25 08:06:21;;;;;;;1.60;1.10;;;;;;;;;;5037256;28;20290;-63
2023/07/25 08:08:49;;;;;;;1.73;1.50;;;;;;;;;;5037049;28;20666;-62
2023/07/25 08:11:17;;;;;;;2.70;1.70;;;;;;;;;;5049079;28;20242;-64
2023/07/25 08:13:44;;;;;;;2.77;1.53;;;;;;;;;;5056881;28;20325;-65
2023/07/25 08:16:12;;;;;;;2.23;1.20;;;;;;;;;;5057021;28;20213;-65
2023/07/25 08:18:40;;;;;;;1.87;1.13;;;;;;;;;;5041711;28;20242;-65
2023/07/25 08:21:09;;;;;;;1.60;1.10;;;;;;;;;;5040028;28;20232;-65
2023/07/25 08:23:37;;;;;;;3.10;1.50;;;;;;;;;;5060718;28;20294;-63
2023/07/25 08:26:05;;;;;;;3.50;1.60;;;;;;;;;;5060952;28;20207;-63
2023/07/25 08:28:35;;;;;;;4.53;1.23;;;;;;;;;;5060973;28;20213;-63
2023/07/25 08:31:05;;;;;;;2.03;1.20;;;;;;;;;;5056551;28;20228;-64
2023/07/25 08:33:34;;;;;;;1.70;1.27;;;;;;;;;;5040856;28;20286;-64
2023/07/25 08:36:03;;;;;;;2.57;1.27;;;;;;;;;;5040974;28;20243;-64
2023/07/25 08:38:32;;;;;;;2.83;1.47;;;;;;;;;;5041190;28;20706;-64
2023/07/25 08:41:02;;;;;;;1.30;1.20;;;;;;;;;;5046488;28;20236;-64
2023/07/25 08:43:31;;;;;;;1.10;1.07;;;;;;;;;;5040774;28;20208;-64
2023/07/25 08:46:00;;;;;;;4.90;1.00;;;;;;;;;;5040909;28;20239;-64
2023/07/25 08:48:29;;;;;;;1.27;0.73;;;;;;;;;;5040659;28;20571;-64
2023/07/25 08:50:57;;;;;;;1.33;0.83;;;;;;;;;;5040722;28;20223;-63
2023/07/25 08:53:25;;;;;;;1.37;0.70;;;;;;;;;;5040922;28;20242;-64
2023/07/25 08:55:56;;;;;;;2.07;0.77;;;;;;;;;;5040366;28;20616;-73
2023/07/25 08:58:25;;;;;;;0.90;0.90;;;;;;;;;;5040512;28;20593;-75
2023/07/25 09:00:53;;;;;;;2.17;0.80;;;;;;;;;;5049501;28;20231;-76
2023/07/25 09:03:22;;;;;;;1.20;0.90;;;;;;;;;;5040557;28;20308;-75
2023/07/25 09:05:50;;;;;;;2.20;1.07;;;;;;;;;;5040408;28;20209;-75
2023/07/25 09:08:17;;;;;;;2.70;1.00;;;;;;;;;;5040363;28;20211;-75
2023/07/25 09:10:45;;;;;;;3.50;1.10;;;;;;;;;;5053162;28;20227;-74
2023/07/25 09:13:15;;;;;;;1.50;1.00;;;;;;;;;;5062629;28;20218;-74
2023/07/25 09:15:43;;;;;;;3.97;1.50;;;;;;;;;;5053527;28;20206;-74
2023/07/25 09:18:10;;;;;;;1.37;1.00;;;;;;;;;;5048818;28;20275;-76
2023/07/25 09:20:39;;;;;;;2.27;1.00;;;;;;;;;;5039975;28;20751;-77
2023/07/25 09:23:07;;;;;;;5.63;1.37;;;;;;;;;;5040300;28;20204;-75
2023/07/25 09:25:34;;;;;;;3.13;1.30;;;;;;;;;;5039944;28;20639;-75
2023/07/25 09:28:02;;;;;;;1.83;1.00;;;;;;;;;;5039811;28;20242;-75
2023/07/25 09:30:31;;;;;;;2.00;1.10;;;;;;;;;;5041779;28;20231;-73
2023/07/25 09:32:59;;;;;;;1.97;1.27;;;;;;;;;;5046630;28;20246;-74
2023/07/25 09:35:27;;;;;;;2.10;1.10;;;;;;;;;;5046819;28;20290;-74
2023/07/25 09:37:55;;;;;;;1.77;1.30;;;;;;;;;;5059862;28;20214;-74
2023/07/25 09:40:23;;;;;;;1.20;0.90;;;;;;;;;;5052501;28;20232;-75
2023/07/25 09:42:51;;;;;;;2.87;1.27;;;;;;;;;;5039860;28;20213;-75
2023/07/25 09:45:20;;;;;;;1.63;0.80;;;;;;;;;;5039658;28;20663;-75
2023/07/25 09:47:53;;;;;;;2.50;0.90;;;;;;;;;;5039811;28;20218;-74
2023/07/25 09:50:25;;;;;;;2.97;1.07;;;;;;;;;;5039646;28;20357;-74
2023/07/25 09:52:53;;;;;;;1.80;0.90;;;;;;;;;;5039581;28;20231;-74
2023/07/25 09:55:20;;;;;;;2.40;1.10;;;;;;;;;;5039742;28;20222;-74
2023/07/25 09:57:48;;;;;;;1.77;0.80;;;;;;;;;;5039600;28;20207;-75
2023/07/25 10:00:16;;;;;;;1.43;0.70;;;;;;;;;;5053191;28;20812;-74
2023/07/25 10:02:44;;;;;;;4.40;0.97;;;;;;;;;;5055748;28;20222;-75
2023/07/25 10:05:14;;;;;;;1.40;0.70;;;;;;;;;;5040886;28;20240;-74
2023/07/25 10:07:42;;;;;;;2.77;0.90;;;;;;;;;;5042158;28;20211;-74
2023/07/25 10:10:10;;;;;;;6.50;2.03;;;;;;;;;;5050256;28;20226;-75
2023/07/25 10:12:38;;;;;;;4.43;2.37;;;;;;;;;;5058799;28;20544;-65
2023/07/25 10:15:06;;;;;;;1.00;0.90;;;;;;;;;;5058257;28;20213;-64
2023/07/25 10:17:34;;;;;;;1.17;0.70;;;;;;;;;;5038779;28;20662;-63
2023/07/25 10:20:05;;;;;;;0.80;0.80;;;;;;;;;;5048656;28;20234;-63
2023/07/25 10:22:39;;;;;;;1.00;0.60;;;;;;;;;;5038305;28;20663;-64
2023/07/25 10:25:10;;;;;;;1.77;0.80;;;;;;;;;;5038697;28;20210;-64
2023/07/25 10:27:38;;;;;;;1.60;0.90;;;;;;;;;;5054016;28;20661;-63
2023/07/25 10:30:21;;;;;;;1.67;0.83;;;;;;;;;;5058142;28;20247;-63
2023/07/25 10:32:51;;;;;;;1.73;1.10;;;;;;;;;;5038371;28;20293;-64
2023/07/25 10:35:38;;;;;;;1.07;0.97;;;;;;;;;;5038358;28;20213;-64
2023/07/25 10:38:09;;;;;;;1.33;0.90;;;;;;;;;;5038181;28;20723;-71
2023/07/25 10:40:55;;;;;;;1.57;0.87;;;;;;;;;;5044513;28;20222;-75
2023/07/25 10:43:26;;;;;;;1.63;1.40;;;;;;;;;;5042462;28;20556;-74
2023/07/25 10:45:55;;;;;;;2.50;1.50;;;;;;;;;;5058212;28;20236;-75
2023/07/25 10:48:30;;;;;;;1.73;1.20;;;;;;;;;;5058130;28;20223;-75
2023/07/25 10:50:58;;;;;;;2.43;1.23;;;;;;;;;;5040475;28;20308;-75
2023/07/25 10:53:27;;;;;;;1.37;0.90;;;;;;;;;;5046515;28;20212;-75
2023/07/25 10:56:14;;;;;;;0.80;0.80;;;;;;;;;;5039688;28;20208;-75
2023/07/25 10:59:00;;;;;;;1.93;1.30;;;;;;;;;;5041171;28;20206;-74
2023/07/25 11:01:33;;;;;;;2.87;1.33;;;;;;;;;;5047276;28;20287;-73
2023/07/25 11:04:20;;;;;;;2.10;1.10;;;;;;;;;;5056217;28;20213;-72
2023/07/25 11:06:48;;;;;;;3.37;1.00;;;;;;;;;;5057865;28;20210;-74
2023/07/25 11:09:18;;;;;;;3.03;1.00;;;;;;;;;;5049903;28;20294;-73
2023/07/25 11:11:46;;;;;;;1.07;0.90;;;;;;;;;;5037888;28;20276;-74
2023/07/25 11:14:17;;;;;;;1.30;0.90;;;;;;;;;;5038035;28;20221;-74
2023/07/25 11:16:45;;;;;;;2.40;1.00;;;;;;;;;;5051283;28;20649;-74
2023/07/25 11:19:14;;;;;;;2.20;0.70;;;;;;;;;;5047924;28;20220;-73
2023/07/25 11:21:42;;;;;;;1.30;1.10;;;;;;;;;;5037802;28;20232;-74
2023/07/25 11:24:11;;;;;;;1.70;0.97;;;;;;;;;;5037970;28;20217;-74
2023/07/25 11:26:42;;;;;;;0.80;0.80;;;;;;;;;;5037999;28;20690;-74
2023/07/25 11:29:11;;;;;;;2.17;1.00;;;;;;;;;;5037761;28;20299;-74
2023/07/25 11:31:45;;;;;;;1.83;0.97;;;;;;;;;;5049277;28;20293;-73
2023/07/25 11:34:13;;;;;;;1.77;1.07;;;;;;;;;;5057571;28;20240;-74
2023/07/25 11:36:41;;;;;;;1.50;0.97;;;;;;;;;;5057719;28;20216;-73
2023/07/25 11:39:10;;;;;;;0.63;0.63;;;;;;;;;;5057662;28;20250;-73
2023/07/25 11:41:38;;;;;;;2.23;0.80;;;;;;;;;;5049489;28;20599;-74
2023/07/25 11:44:09;;;;;;;3.23;0.80;;;;;;;;;;5037483;28;20687;-74
2023/07/25 11:46:37;;;;;;;1.53;1.00;;;;;;;;;;5037737;28;20210;-74
2023/07/25 11:49:05;;;;;;;3.47;1.10;;;;;;;;;;5042419;28;20259;-73
2023/07/25 11:51:33;;;;;;;2.33;1.23;;;;;;;;;;5054897;28;20237;-73
2023/07/25 11:54:01;;;;;;;2.30;0.90;;;;;;;;;;5057421;28;20210;-74
2023/07/25 11:56:29;;;;;;;1.03;0.90;;;;;;;;;;5060511;28;20213;-74
2023/07/25 11:58:57;;;;;;;1.87;1.00;;;;;;;;;;5061664;28;20638;-73
2023/07/25 12:01:30;;;;;;;0.93;0.93;;;;;;;;;;5047205;28;20583;-70
2023/07/25 12:04:00;;;;;;;1.80;0.90;;;;;;;;;;5041721;28;20286;-70
2023/07/25 12:06:29;;;;;;;1.00;0.93;;;;;;;;;;5065078;28;20194;-71
2023/07/25 12:08:58;;;;;;;1.93;1.13;;;;;;;;;;5055019;28;20205;-71
2023/07/25 12:11:26;;;;;;;3.33;0.80;;;;;;;;;;5064159;28;20767;-70
2023/07/25 12:13:55;;;;;;;2.10;0.90;;;;;;;;;;5059822;28;20205;-71
2023/07/25 12:16:27;;;;;;;1.53;0.83;;;;;;;;;;5068312;28;20238;-70
2023/07/25 12:18:57;;;;;;;1.17;1.07;;;;;;;;;;5063943;28;20199;-70
2023/07/25 12:21:26;;;;;;;1.53;1.00;;;;;;;;;;5070811;28;20222;-71
2023/07/25 12:23:54;;;;;;;1.27;0.80;;;;;;;;;;5067019;28;20782;-69
2023/07/25 12:26:22;;;;;;;1.23;1.03;;;;;;;;;;5070966;28;20538;-69
2023/07/25 12:28:51;;;;;;;1.07;0.70;;;;;;;;;;5065727;28;20264;-70
2023/07/25 12:31:19;;;;;;;2.47;0.90;;;;;;;;;;5067794;28;20230;-70
2023/07/25 12:33:47;;;;;;;1.37;1.20;;;;;;;;;;5065939;28;20230;-71
2023/07/25 12:36:17;;;;;;;1.37;0.87;;;;;;;;;;5065165;28;20623;-72
2023/07/25 12:38:45;;;;;;;1.60;1.10;;;;;;;;;;5070410;28;20200;-71
2023/07/25 12:41:15;;;;;;;1.00;0.80;;;;;;;;;;5045501;28;20227;-72
2023/07/25 12:43:43;;;;;;;1.53;0.60;;;;;;;;;;5053583;28;20234;-70
2023/07/25 12:46:11;;;;;;;2.23;0.90;;;;;;;;;;5042786;28;20205;-71
2023/07/25 12:48:39;;;;;;;1.87;1.00;;;;;;;;;;5043960;28;20279;-71
2023/07/25 12:51:07;;;;;;;1.33;0.90;;;;;;;;;;5040696;28;20234;-69
2023/07/25 12:53:36;;;;;;;1.07;0.80;;;;;;;;;;5040382;28;20651;-71
2023/07/25 12:56:04;;;;;;;2.97;1.07;;;;;;;;;;5040774;28;20207;-71
2023/07/25 12:58:31;;;;;;;0.60;0.60;;;;;;;;;;5050964;28;20203;-71
2023/07/25 13:00:59;;;;;;;1.40;0.90;;;;;;;;;;5047983;28;20315;-70
2023/07/25 13:03:28;;;;;;;0.60;0.60;;;;;;;;;;5047407;28;20671;-71
2023/07/25 13:05:56;;;;;;;0.80;0.80;;;;;;;;;;5066380;28;20195;-71
2023/07/25 13:08:25;;;;;;;1.67;1.30;;;;;;;;;;5054889;28;20199;-71
2023/07/25 13:10:54;;;;;;;1.23;0.93;;;;;;;;;;5054971;28;20224;-71
2023/07/25 13:13:21;;;;;;;1.53;0.90;;;;;;;;;;5050604;28;20216;-70
2023/07/25 13:15:49;;;;;;;2.63;1.00;;;;;;;;;;5050444;28;20204;-70
2023/07/25 13:18:17;;;;;;;0.83;0.57;;;;;;;;;;5039949;28;20210;-71
2023/07/25 13:20:45;;;;;;;0.87;0.80;;;;;;;;;;5040022;28;20230;-70
2023/07/25 13:23:13;;;;;;;1.60;1.03;;;;;;;;;;5040022;28;20688;-70
2023/07/25 13:25:53;;;;;;;0.50;0.50;;;;;;;;;;5039911;28;20213;-69
2023/07/25 13:28:28;;;;;;;1.80;0.63;;;;;;;;;;5039423;28;20301;-69
2023/07/25 13:30:56;;;;;;;0.70;0.70;;;;;;;;;;5057963;28;20235;-70
2023/07/25 13:33:24;;;;;;;2.00;0.93;;;;;;;;;;5045157;28;20232;-68
2023/07/25 13:35:52;;;;;;;0.70;0.70;;;;;;;;;;5039751;28;20208;-67
2023/07/25 13:38:22;;;;;;;0.60;0.60;;;;;;;;;;5044933;28;20295;-68
2023/07/25 13:40:52;;;;;;;0.87;0.80;;;;;;;;;;5053221;28;20311;-63
2023/07/25 13:43:20;;;;;;;2.17;0.63;;;;;;;;;;5039398;28;20689;-63
2023/07/25 13:45:50;;;;;;;1.40;0.40;;;;;;;;;;5039525;28;20547;-63
2023/07/25 13:48:20;;;;;;;2.37;0.40;;;;;;;;;;5039768;28;20210;-64
2023/07/25 13:50:48;;;;;;;0.70;0.47;;;;;;;;;;5039724;28;20296;-64
2023/07/25 13:53:21;;;;;;;0.53;0.53;;;;;;;;;;5039654;28;20201;-63
2023/07/25 13:55:49;;;;;;;1.20;1.10;;;;;;;;;;5039462;28;20209;-62
2023/07/25 13:58:17;;;;;;;0.83;0.60;;;;;;;;;;5039109;28;20212;-63
2023/07/25 14:00:49;;;;;;;0.40;0.40;;;;;;;;;;5056728;28;20232;-63
2023/07/25 14:03:17;;;;;;;1.40;0.33;;;;;;;;;;5042951;28;20328;-63
2023/07/25 14:05:44;;;;;;;0.40;0.40;;;;;;;;;;5039238;28;20564;-63
2023/07/25 14:08:12;;;;;;;1.20;0.40;;;;;;;;;;5038967;28;20205;-63
2023/07/25 14:10:40;;;;;;;0.70;0.43;;;;;;;;;;5039154;28;20240;-63
2023/07/25 14:13:08;;;;;;;1.03;0.40;;;;;;;;;;5039016;28;20767;-63
2023/07/25 14:15:36;;;;;;;0.70;0.57;;;;;;;;;;5042730;28;20199;-63
2023/07/25 14:18:05;;;;;;;0.93;0.50;;;;;;;;;;5058130;28;20266;-63
2023/07/25 14:20:33;;;;;;;0.20;0.20;;;;;;;;;;5058989;28;20235;-63
2023/07/25 14:23:00;;;;;;;0.30;0.30;;;;;;;;;;5058813;28;20663;-63
2023/07/25 14:25:28;;;;;;;0.93;0.40;;;;;;;;;;5058896;28;20208;-62
2023/07/25 14:27:56;;;;;;;0.50;0.30;;;;;;;;;;5058732;28;20302;-62
2023/07/25 14:30:24;;;;;;;0.60;0.50;;;;;;;;;;5058721;28;20292;-70
2023/07/25 14:32:57;;;;;;;3.43;0.43;;;;;;;;;;5046155;28;20229;-69
2023/07/25 14:35:30;;;;;;;2.77;0.60;;;;;;;;;;5063227;28;20296;-69
2023/07/25 14:37:58;;;;;;;1.00;0.60;;;;;;;;;;5059291;28;20195;-70
2023/07/25 14:40:28;;;;;;;0.83;0.47;;;;;;;;;;5066008;28;20589;-70
2023/07/25 14:42:56;;;;;;;0.57;0.40;;;;;;;;;;5065110;28;20199;-70
2023/07/25 14:45:24;;;;;;;1.57;0.40;;;;;;;;;;5068262;28;20272;-70
2023/07/25 14:47:54;;;;;;;3.10;0.60;;;;;;;;;;5060935;28;20639;-70
2023/07/25 14:50:22;;;;;;;3.23;0.70;;;;;;;;;;5064182;28;20228;-70
2023/07/25 14:52:51;;;;;;;1.77;0.63;;;;;;;;;;5063719;28;20211;-69